Time;durP1;ratioP1;P1;durP2;ratioP2;P2;SDS_P1;SDS_P2;PMS_P1;PMS_P2;Temp;Humidity;BMP_temperature;BMP_pressure;BME280_temperature;BME280_humidity;BME280_pressure;Samples;Min_cycle;Max_cycle;Signal;HPM_P1;HPM_P2
2023/06/14 00:01:45;;;;;;;0.03;0.03;;;;;;;16.53;51.69;97274.81;5025579;28;20429;-72
2023/06/14 00:04:13;;;;;;;0.10;0.10;;;;;;;16.49;51.68;97279.06;5029161;28;20045;-71
2023/06/14 00:06:44;;;;;;;0.10;0.10;;;;;;;16.52;51.31;97273.19;5025627;28;20080;-71
2023/06/14 00:09:13;;;;;;;0.10;0.10;;;;;;;16.50;51.48;97276.13;5024494;28;20066;-72
2023/06/14 00:11:41;;;;;;;0.10;0.10;;;;;;;16.39;51.88;97281.56;5022246;28;20112;-71
2023/06/14 00:14:09;;;;;;;0.17;0.17;;;;;;;16.36;51.84;97272.06;5028278;28;20048;-71
2023/06/14 00:16:38;;;;;;;0.17;0.17;;;;;;;16.34;51.87;97270.66;5019254;28;20046;-72
2023/06/14 00:19:06;;;;;;;0.10;0.10;;;;;;;16.27;52.35;97270.00;5019729;28;20085;-71
2023/06/14 00:21:34;;;;;;;0.20;0.20;;;;;;;16.23;52.29;97275.03;5024078;28;20554;-71
2023/06/14 00:24:04;;;;;;;0.10;0.10;;;;;;;16.16;52.45;97274.34;5026155;28;20050;-72
2023/06/14 00:26:31;;;;;;;0.10;0.10;;;;;;;16.13;52.72;97275.66;5020291;28;20121;-73
2023/06/14 00:28:59;;;;;;;0.10;0.10;;;;;;;16.14;52.63;97276.47;5025115;28;20042;-73
2023/06/14 00:31:27;;;;;;;0.10;0.10;;;;;;;16.09;52.70;97271.78;5019353;28;20041;-72
2023/06/14 00:33:55;;;;;;;0.20;0.20;;;;;;;16.03;53.19;97261.16;5029350;28;20561;-72
2023/06/14 00:36:22;;;;;;;0.05;0.05;;;;;;;15.96;53.31;97263.97;5006807;28;20050;-72
2023/06/14 00:38:50;;;;;;;0.10;0.10;;;;;;;15.91;53.25;97266.53;5027545;28;20037;-72
2023/06/14 00:41:19;;;;;;;0.03;0.03;;;;;;;15.88;53.48;97261.66;5028204;28;20069;-72
2023/06/14 00:43:47;;;;;;;0.15;0.15;;;;;;;15.86;53.79;97263.75;5032049;28;20045;-72
2023/06/14 00:46:15;;;;;;;0.03;0.03;;;;;;;15.83;53.96;97271.47;5027372;28;20163;-72
2023/06/14 00:48:43;;;;;;;0.10;0.10;;;;;;;15.78;54.01;97262.22;5028399;28;20148;-72
2023/06/14 00:51:10;;;;;;;0.00;0.00;;;;;;;15.75;53.96;97262.72;5025568;28;20386;-72
2023/06/14 00:53:39;;;;;;;0.10;0.10;;;;;;;15.74;53.97;97266.47;5028074;28;20037;-72
2023/06/14 00:56:07;;;;;;;0.10;0.10;;;;;;;15.77;53.88;97271.38;5022549;28;20053;-72
2023/06/14 00:58:36;;;;;;;0.05;0.05;;;;;;;15.81;53.96;97265.50;5028284;28;20038;-72
2023/06/14 01:01:04;;;;;;;0.10;0.10;;;;;;;15.79;54.15;97269.25;5020156;28;20046;-71
2023/06/14 01:03:33;;;;;;;0.10;0.10;;;;;;;15.57;54.82;97276.31;5028869;28;20033;-72
2023/06/14 01:06:10;;;;;;;0.20;0.20;;;;;;;15.44;55.30;97281.88;5000156;28;20053;-72
2023/06/14 01:08:47;;;;;;;0.10;0.10;;;;;;;15.22;56.22;97284.31;5030509;28;20037;-72
2023/06/14 01:11:21;;;;;;;0.10;0.10;;;;;;;15.13;56.21;97284.88;5011051;28;20046;-71
2023/06/14 01:13:51;;;;;;;0.08;0.08;;;;;;;15.04;56.49;97282.53;5016901;28;20045;-72
2023/06/14 01:16:22;;;;;;;0.20;0.20;;;;;;;15.01;56.55;97284.84;5011742;28;20045;-72
2023/06/14 01:18:51;;;;;;;0.10;0.10;;;;;;;14.94;57.18;97287.66;5028436;28;20045;-72
2023/06/14 01:21:22;;;;;;;0.10;0.10;;;;;;;14.87;57.22;97284.22;5011157;28;20095;-72
2023/06/14 01:23:52;;;;;;;0.00;0.00;;;;;;;14.68;58.10;97290.69;5025527;28;20087;-72
2023/06/14 01:26:21;;;;;;;0.10;0.10;;;;;;;14.71;57.96;97286.75;5027139;28;20037;-72
2023/06/14 01:28:49;;;;;;;0.10;0.10;;;;;;;14.78;57.40;97280.22;5014587;28;20033;-72
2023/06/14 01:31:18;;;;;;;0.13;0.13;;;;;;;14.66;58.57;97284.72;5027773;28;20079;-72
2023/06/14 01:33:46;;;;;;;0.10;0.10;;;;;;;14.66;57.84;97282.88;5034329;28;20049;-72
2023/06/14 01:36:14;;;;;;;0.10;0.10;;;;;;;14.76;57.39;97287.69;5008744;28;20060;-72
2023/06/14 01:38:43;;;;;;;0.10;0.10;;;;;;;14.74;57.59;97289.00;5015253;28;20041;-72
2023/06/14 01:41:12;;;;;;;0.10;0.10;;;;;;;14.49;59.01;97284.56;5031018;28;20045;-73
2023/06/14 01:43:40;;;;;;;0.10;0.10;;;;;;;14.56;58.92;97287.16;5013132;28;20055;-72
2023/06/14 01:46:09;;;;;;;0.10;0.10;;;;;;;14.66;58.64;97290.94;5026961;28;20046;-71
2023/06/14 01:48:37;;;;;;;0.10;0.10;;;;;;;14.64;58.49;97286.81;5015510;28;20078;-71
2023/06/14 01:51:04;;;;;;;0.13;0.13;;;;;;;14.78;58.09;97288.28;5006715;28;20038;-71
2023/06/14 01:53:32;;;;;;;0.00;0.00;;;;;;;14.74;58.48;97284.44;5033063;28;20049;-72
2023/06/14 01:56:01;;;;;;;0.13;0.13;;;;;;;14.52;59.45;97286.81;5030742;28;20068;-72
2023/06/14 01:58:32;;;;;;;0.10;0.10;;;;;;;14.53;58.93;97285.75;5014227;28;20067;-72
2023/06/14 02:01:02;;;;;;;0.10;0.10;;;;;;;14.65;58.50;97281.22;5015158;28;20571;-72
2023/06/14 02:03:29;;;;;;;0.10;0.10;;;;;;;14.53;59.01;97285.75;5022072;28;20037;-72
2023/06/14 02:05:57;;;;;;;0.10;0.10;;;;;;;14.46;59.47;97284.19;5024161;28;20132;-72
2023/06/14 02:08:25;;;;;;;0.10;0.10;;;;;;;14.47;59.27;97275.09;5011971;28;20204;-72
2023/06/14 02:10:53;;;;;;;0.00;0.00;;;;;;;14.72;57.93;97281.16;5012516;28;20488;-73
2023/06/14 02:13:21;;;;;;;0.10;0.10;;;;;;;14.77;57.85;97286.63;5030414;28;20042;-72
2023/06/14 02:15:54;;;;;;;0.10;0.10;;;;;;;14.78;57.92;97285.59;5027914;28;20033;-72
2023/06/14 02:18:22;;;;;;;0.10;0.10;;;;;;;14.78;57.80;97282.09;5015191;28;20068;-72
2023/06/14 02:20:49;;;;;;;0.10;0.10;;;;;;;14.70;57.99;97288.63;5029062;28;20049;-72
2023/06/14 02:23:17;;;;;;;0.10;0.10;;;;;;;14.69;58.00;97290.47;5035754;28;20052;-72
2023/06/14 02:25:45;;;;;;;0.10;0.10;;;;;;;14.64;58.13;97292.19;5015036;28;20052;-72
2023/06/14 02:28:14;;;;;;;0.10;0.10;;;;;;;14.52;58.34;97294.03;5014730;28;20049;-72
2023/06/14 02:30:41;;;;;;;0.10;0.10;;;;;;;14.46;58.68;97297.63;5014759;28;20060;-72
2023/06/14 02:33:12;;;;;;;0.10;0.10;;;;;;;14.49;58.23;97299.84;5010767;28;20060;-72
2023/06/14 02:35:40;;;;;;;0.10;0.10;;;;;;;14.44;58.29;97291.63;5017165;28;20045;-73
2023/06/14 02:38:08;;;;;;;0.20;0.20;;;;;;;14.28;59.17;97293.88;5011876;28;20046;-72
2023/06/14 02:40:36;;;;;;;0.10;0.10;;;;;;;14.30;58.67;97296.34;5014046;28;20052;-73
2023/06/14 02:43:05;;;;;;;0.10;0.10;;;;;;;14.29;58.72;97292.03;5010622;28;20042;-73
2023/06/14 02:45:32;;;;;;;0.20;0.20;;;;;;;14.30;58.70;97291.81;5023991;28;20114;-73
2023/06/14 02:48:00;;;;;;;0.20;0.20;;;;;;;14.32;58.60;97288.91;5025857;28;20058;-73
2023/06/14 02:50:30;;;;;;;0.10;0.10;;;;;;;14.25;59.12;97293.50;5022894;28;20405;-73
2023/06/14 02:52:58;;;;;;;0.10;0.10;;;;;;;14.25;58.99;97299.69;5026757;28;20140;-72
2023/06/14 02:55:26;;;;;;;0.10;0.10;;;;;;;14.25;58.70;97294.31;5005435;28;20100;-72
2023/06/14 02:57:54;;;;;;;0.10;0.10;;;;;;;14.04;59.91;97307.38;5022951;28;20053;-72
2023/06/14 03:00:23;;;;;;;0.10;0.10;;;;;;;14.03;59.57;97303.06;5010864;28;20069;-72
2023/06/14 03:02:52;;;;;;;0.10;0.10;;;;;;;13.86;61.03;97321.63;5011883;28;20452;-71
2023/06/14 03:05:21;;;;;;;0.10;0.10;;;;;;;13.93;60.34;97308.94;5028154;28;20504;-72
2023/06/14 03:07:50;;;;;;;0.10;0.10;;;;;;;13.93;60.41;97311.63;5013292;28;20041;-73
2023/06/14 03:10:18;;;;;;;0.10;0.10;;;;;;;13.98;60.16;97319.84;5027087;28;20552;-73
2023/06/14 03:12:47;;;;;;;0.10;0.10;;;;;;;13.91;60.61;97324.47;5028007;28;20045;-74
2023/06/14 03:15:17;;;;;;;0.15;0.15;;;;;;;13.89;60.73;97315.81;5028207;28;20038;-73
2023/06/14 03:17:49;;;;;;;0.10;0.10;;;;;;;13.90;60.37;97320.97;5008386;28;20037;-74
2023/06/14 03:20:17;;;;;;;0.05;0.05;;;;;;;13.89;60.61;97331.91;5026239;28;20092;-74
2023/06/14 03:22:47;;;;;;;0.20;0.20;;;;;;;13.96;60.19;97332.66;5021215;28;20054;-73
2023/06/14 03:25:17;;;;;;;0.10;0.10;;;;;;;14.06;60.01;97327.59;5013568;28;20053;-73
2023/06/14 03:27:47;;;;;;;0.10;0.10;;;;;;;14.11;59.56;97327.75;5022050;28;20041;-72
2023/06/14 03:30:15;;;;;;;0.10;0.10;;;;;;;14.10;59.61;97330.66;5028590;28;20037;-73
2023/06/14 03:32:46;;;;;;;0.10;0.10;;;;;;;14.11;59.77;97334.97;5010848;28;20080;-72
2023/06/14 03:35:16;;;;;;;0.20;0.20;;;;;;;14.10;59.65;97334.16;5024977;28;20112;-72
2023/06/14 03:37:46;;;;;;;0.10;0.10;;;;;;;14.10;59.86;97347.59;5026504;28;20551;-71
2023/06/14 03:40:18;;;;;;;0.10;0.10;;;;;;;14.09;59.90;97337.88;5022924;28;20038;-73
2023/06/14 03:42:50;;;;;;;0.10;0.10;;;;;;;14.07;60.39;97349.88;5010695;28;20054;-72
2023/06/14 03:45:20;;;;;;;0.10;0.10;;;;;;;14.03;60.31;97343.31;5007919;28;20379;-71
2023/06/14 03:47:48;;;;;;;0.10;0.10;;;;;;;13.63;61.92;97348.25;5028444;28;20136;-73
2023/06/14 03:50:16;;;;;;;0.10;0.10;;;;;;;13.68;61.62;97349.25;5000461;28;20062;-72
2023/06/14 03:52:44;;;;;;;0.20;0.20;;;;;;;13.82;61.34;97360.66;5013901;28;20045;-72
2023/06/14 03:55:13;;;;;;;0.10;0.10;;;;;;;13.86;61.20;97359.19;5009703;28;20646;-73
2023/06/14 03:57:45;;;;;;;0.17;0.17;;;;;;;13.73;62.19;97364.66;5027893;28;20046;-72
2023/06/14 04:00:17;;;;;;;0.10;0.10;;;;;;;13.74;61.94;97366.31;5009463;28;20037;-73
2023/06/14 04:02:45;;;;;;;0.10;0.10;;;;;;;13.47;62.82;97360.34;5009991;28;20046;-73
2023/06/14 04:05:14;;;;;;;0.10;0.10;;;;;;;13.62;62.28;97376.09;5017103;28;20112;-72
2023/06/14 04:07:45;;;;;;;0.17;0.17;;;;;;;13.51;63.12;97366.91;5023840;28;20052;-72
2023/06/14 04:10:14;;;;;;;0.10;0.10;;;;;;;13.62;62.53;97381.47;5025746;28;20114;-71
2023/06/14 04:12:41;;;;;;;0.10;0.10;;;;;;;13.78;62.00;97380.94;5026185;28;20042;-72
2023/06/14 04:15:13;;;;;;;0.20;0.20;;;;;;;13.84;61.71;97380.84;5029068;28;20140;-73
2023/06/14 04:17:48;;;;;;;0.10;0.10;;;;;;;13.84;61.84;97388.91;5008400;28;20042;-72
2023/06/14 04:20:16;;;;;;;0.10;0.10;;;;;;;13.87;61.80;97379.59;5017468;28;20125;-73
2023/06/14 04:22:45;;;;;;;0.28;0.28;;;;;;;13.88;61.94;97386.59;5011456;28;20046;-71
2023/06/14 04:25:12;;;;;;;0.00;0.00;;;;;;;13.89;61.72;97390.94;5026475;28;20416;-72
2023/06/14 04:27:43;;;;;;;0.17;0.17;;;;;;;13.81;62.24;97386.66;5005274;28;20050;-70
2023/06/14 04:30:13;;;;;;;0.10;0.10;;;;;;;13.79;62.43;97388.75;5013697;28;20132;-70
2023/06/14 04:32:47;;;;;;;0.10;0.10;;;;;;;13.81;62.61;97397.38;5019031;28;20069;-71
2023/06/14 04:35:16;;;;;;;0.22;0.22;;;;;;;13.90;62.03;97392.59;5026957;28;20128;-70
2023/06/14 04:37:46;;;;;;;0.20;0.20;;;;;;;13.87;62.56;97398.38;4998630;28;20528;-70
2023/06/14 04:40:13;;;;;;;0.10;0.10;;;;;;;13.85;62.51;97397.78;5012934;28;20037;-71
2023/06/14 04:42:44;;;;;;;0.10;0.10;;;;;;;13.85;62.63;97408.50;5014445;28;20038;-70
2023/06/14 04:45:15;;;;;;;0.10;0.10;;;;;;;13.86;62.76;97402.09;5023842;28;20038;-70
2023/06/14 04:47:45;;;;;;;0.10;0.10;;;;;;;13.80;62.76;97405.69;5010332;28;20098;-73
2023/06/14 04:50:14;;;;;;;0.20;0.20;;;;;;;13.77;63.07;97396.19;5018572;28;20064;-74
2023/06/14 04:52:42;;;;;;;0.13;0.13;;;;;;;13.78;62.92;97397.84;5021587;28;20076;-73
2023/06/14 04:55:10;;;;;;;0.10;0.10;;;;;;;13.82;62.84;97398.19;5013757;28;20044;-70
2023/06/14 04:57:40;;;;;;;0.10;0.10;;;;;;;13.88;62.84;97394.66;5014523;28;20468;-71
2023/06/14 05:00:16;;;;;;;0.10;0.10;;;;;;;13.90;62.98;97406.00;5015912;28;20440;-73
2023/06/14 05:02:44;;;;;;;0.10;0.10;;;;;;;13.93;62.56;97402.84;5015441;28;20054;-73
2023/06/14 05:05:12;;;;;;;0.20;0.20;;;;;;;13.95;62.54;97409.66;5011938;28;20053;-73
2023/06/14 05:07:44;;;;;;;0.10;0.10;;;;;;;14.03;62.41;97413.09;5011601;28;20107;-72
2023/06/14 05:10:13;;;;;;;0.15;0.15;;;;;;;14.08;62.28;97411.41;5009246;28;20041;-72
2023/06/14 05:12:43;;;;;;;0.10;0.10;;;;;;;14.04;62.54;97415.56;5012433;28;20137;-72
2023/06/14 05:15:12;;;;;;;0.30;0.30;;;;;;;13.99;62.95;97412.72;5011564;28;20042;-71
2023/06/14 05:17:42;;;;;;;0.10;0.10;;;;;;;14.00;62.80;97411.69;5012301;28;20477;-72
2023/06/14 05:20:11;;;;;;;0.10;0.10;;;;;;;13.95;63.01;97401.59;5026294;28;20041;-73
2023/06/14 05:22:38;;;;;;;0.10;0.10;;;;;;;14.01;62.87;97416.00;5028910;28;20042;-72
2023/06/14 05:25:06;;;;;;;0.10;0.10;;;;;;;13.99;63.22;97404.66;5029557;28;20046;-72
2023/06/14 05:27:35;;;;;;;0.10;0.10;;;;;;;13.99;63.45;97414.59;5018802;28;20303;-72
2023/06/14 05:30:04;;;;;;;0.00;0.00;;;;;;;14.10;63.23;97411.19;5029916;28;20042;-73
2023/06/14 05:32:31;;;;;;;0.15;0.15;;;;;;;14.31;62.26;97411.56;5033461;28;20136;-73
2023/06/14 05:35:00;;;;;;;0.10;0.10;;;;;;;14.45;61.69;97411.44;5023120;28;20112;-73
2023/06/14 05:37:28;;;;;;;0.20;0.20;;;;;;;14.54;61.84;97407.41;5030796;28;20475;-73
2023/06/14 05:39:55;;;;;;;0.10;0.10;;;;;;;14.68;61.26;97415.09;5027367;28;20068;-72
2023/06/14 05:42:23;;;;;;;0.10;0.10;;;;;;;14.58;61.49;97412.13;5030304;28;20524;-72
2023/06/14 05:44:51;;;;;;;0.10;0.10;;;;;;;14.77;60.86;97417.47;5032696;28;20041;-72
2023/06/14 05:47:18;;;;;;;0.05;0.05;;;;;;;14.90;60.27;97414.63;5028851;28;20041;-72
2023/06/14 05:49:46;;;;;;;0.20;0.20;;;;;;;14.97;59.71;97418.06;5030480;28;20125;-73
2023/06/14 05:52:15;;;;;;;0.20;0.20;;;;;;;15.07;59.11;97421.84;5029164;28;20048;-72
2023/06/14 05:54:42;;;;;;;0.10;0.10;;;;;;;15.11;58.94;97418.69;5032264;28;20061;-72
2023/06/14 05:57:11;;;;;;;0.17;0.17;;;;;;;15.22;58.97;97426.00;5028924;28;20047;-72
2023/06/14 05:59:40;;;;;;;0.10;0.10;;;;;;;15.22;59.12;97417.94;5031110;28;20034;-73
2023/06/14 06:02:07;;;;;;;0.10;0.10;;;;;;;15.29;58.89;97414.09;5030978;28;20084;-73
2023/06/14 06:04:35;;;;;;;0.17;0.17;;;;;;;15.34;58.87;97416.09;5033309;28;20513;-73
2023/06/14 06:07:03;;;;;;;0.10;0.10;;;;;;;15.38;58.75;97418.09;5021889;28;20464;-73
2023/06/14 06:09:33;;;;;;;0.10;0.10;;;;;;;15.52;57.91;97418.72;5032554;28;20140;-73
2023/06/14 06:12:03;;;;;;;0.20;0.20;;;;;;;15.60;57.99;97421.09;5029440;28;20044;-73
2023/06/14 06:14:31;;;;;;;0.10;0.10;;;;;;;15.59;58.43;97424.03;5031870;28;20037;-73
2023/06/14 06:16:58;;;;;;;0.10;0.10;;;;;;;15.35;59.25;97421.25;5029471;28;20055;-73
2023/06/14 06:19:26;;;;;;;0.20;0.20;;;;;;;15.59;58.84;97421.34;5030851;28;20037;-72
2023/06/14 06:21:54;;;;;;;0.10;0.10;;;;;;;15.72;58.54;97416.56;5030873;28;20088;-72
2023/06/14 06:24:21;;;;;;;0.10;0.10;;;;;;;15.91;57.69;97419.16;5027203;28;20417;-72
2023/06/14 06:26:50;;;;;;;0.10;0.10;;;;;;;15.61;58.44;97417.38;5032175;28;20046;-72
2023/06/14 06:29:18;;;;;;;0.17;0.17;;;;;;;15.64;58.63;97425.00;5030121;28;20052;-72
2023/06/14 06:31:46;;;;;;;0.13;0.13;;;;;;;15.73;57.52;97426.28;5031416;28;20047;-72
2023/06/14 06:34:14;;;;;;;0.10;0.10;;;;;;;15.98;57.19;97420.72;5028016;28;20038;-72
2023/06/14 06:36:42;;;;;;;0.13;0.13;;;;;;;16.17;55.79;97426.81;5030140;28;20052;-73
2023/06/14 06:39:10;;;;;;;0.17;0.17;;;;;;;16.25;55.46;97431.00;5030014;28;20479;-72
2023/06/14 06:41:39;;;;;;;0.10;0.10;;;;;;;16.37;55.21;97431.84;5011505;28;20037;-72
2023/06/14 06:44:09;;;;;;;0.10;0.10;;;;;;;16.18;55.49;97435.69;5024594;28;20052;-72
2023/06/14 06:46:40;;;;;;;0.20;0.20;;;;;;;16.28;55.92;97435.94;5010030;28;20064;-72
2023/06/14 06:49:09;;;;;;;0.03;0.03;;;;;;;16.41;55.16;97439.19;5024452;28;20123;-72
2023/06/14 06:51:37;;;;;;;0.10;0.10;;;;;;;16.48;55.18;97439.91;5028882;28;20038;-72
2023/06/14 06:54:05;;;;;;;0.10;0.10;;;;;;;16.55;55.26;97447.03;5028391;28;20076;-72
2023/06/14 06:56:33;;;;;;;0.13;0.13;;;;;;;16.64;55.11;97442.94;5025597;28;20120;-72
2023/06/14 06:59:01;;;;;;;0.10;0.10;;;;;;;16.82;54.97;97445.47;5027814;28;20084;-72
2023/06/14 07:01:29;;;;;;;0.10;0.10;;;;;;;16.78;54.84;97447.84;5027226;28;20038;-72
2023/06/14 07:03:57;;;;;;;0.20;0.20;;;;;;;16.59;55.59;97449.03;5029727;28;20080;-73
2023/06/14 07:06:27;;;;;;;0.00;0.00;;;;;;;16.63;55.72;97452.09;5025832;28;20045;-72
2023/06/14 07:08:54;;;;;;;0.05;0.05;;;;;;;16.62;55.96;97450.44;5028794;28;20049;-73
2023/06/14 07:11:22;;;;;;;0.10;0.10;;;;;;;16.73;55.72;97455.00;5032434;28;20043;-73
2023/06/14 07:13:50;;;;;;;0.10;0.10;;;;;;;16.53;56.55;97456.16;5026947;28;20482;-73
2023/06/14 07:16:18;;;;;;;0.00;0.00;;;;;;;16.61;56.52;97457.69;5031305;28;20046;-73
2023/06/14 07:18:47;;;;;;;0.10;0.10;;;;;;;16.88;54.97;97464.25;5026848;28;20046;-73
2023/06/14 07:21:14;;;;;;;0.10;0.10;;;;;;;17.11;54.52;97451.75;5030995;28;20037;-72
2023/06/14 07:23:42;;;;;;;0.10;0.10;;;;;;;17.29;54.46;97458.84;5026365;28;20076;-72
2023/06/14 07:26:09;;;;;;;0.10;0.10;;;;;;;17.41;53.73;97456.91;5028545;28;20125;-73
2023/06/14 07:28:37;;;;;;;0.10;0.10;;;;;;;17.56;53.03;97452.59;5031652;28;20037;-73
2023/06/14 07:31:05;;;;;;;0.10;0.10;;;;;;;17.73;52.59;97452.69;5023913;28;20038;-73
2023/06/14 07:33:32;;;;;;;0.13;0.13;;;;;;;17.80;52.31;97460.63;5031684;28;20060;-73
2023/06/14 07:36:01;;;;;;;0.10;0.10;;;;;;;17.98;52.21;97460.38;5030685;28;20049;-73
2023/06/14 07:38:29;;;;;;;0.10;0.10;;;;;;;18.12;51.82;97461.69;5029841;28;20056;-73
2023/06/14 07:40:56;;;;;;;0.10;0.10;;;;;;;18.05;51.90;97463.75;5023922;28;20494;-73
2023/06/14 07:43:24;;;;;;;0.10;0.10;;;;;;;18.06;52.22;97460.00;5030938;28;20052;-73
2023/06/14 07:45:52;;;;;;;0.10;0.10;;;;;;;18.11;51.75;97462.75;5029572;28;20052;-73
2023/06/14 07:48:34;;;;;;;0.10;0.10;;;;;;;18.35;51.37;97458.00;5026319;28;20052;-72
2023/06/14 07:51:03;;;;;;;0.10;0.10;;;;;;;18.48;51.22;97460.34;5029094;28;20058;-72
2023/06/14 07:53:32;;;;;;;0.10;0.10;;;;;;;18.52;50.12;97450.69;5028674;28;20037;-72
2023/06/14 07:55:59;;;;;;;0.10;0.10;;;;;;;18.84;49.92;97464.41;5029218;28;20049;-72
2023/06/14 07:58:27;;;;;;;0.10;0.10;;;;;;;19.14;47.81;97463.97;5011227;28;20045;-73
2023/06/14 08:00:55;;;;;;;0.08;0.03;;;;;;;19.32;47.24;97463.63;5029590;28;20042;-72
2023/06/14 08:03:23;;;;;;;0.10;0.10;;;;;;;19.50;47.46;97461.72;5030812;28;20037;-72
2023/06/14 08:05:51;;;;;;;0.10;0.10;;;;;;;19.68;46.65;97470.28;5027070;28;20053;-73
2023/06/14 08:08:20;;;;;;;0.10;0.10;;;;;;;19.83;46.50;97464.19;5029884;28;20041;-72
2023/06/14 08:10:47;;;;;;;0.10;0.10;;;;;;;19.58;46.65;97466.66;5030593;28;20045;-73
2023/06/14 08:13:15;;;;;;;0.10;0.10;;;;;;;19.86;46.12;97463.69;5028394;28;20041;-73
2023/06/14 08:15:43;;;;;;;0.00;0.00;;;;;;;20.10;45.87;97464.16;5032516;28;20073;-73
2023/06/14 08:18:11;;;;;;;0.10;0.10;;;;;;;20.24;45.29;97469.97;5030589;28;20492;-73
2023/06/14 08:20:40;;;;;;;0.00;0.00;;;;;;;20.03;45.33;97460.88;5034811;28;20555;-73
2023/06/14 08:23:08;;;;;;;0.10;0.10;;;;;;;20.03;45.87;97467.09;5026797;28;20037;-73
2023/06/14 08:25:37;;;;;;;0.10;0.10;;;;;;;20.11;45.55;97461.19;5034768;28;20046;-73
2023/06/14 08:28:05;;;;;;;0.00;0.00;;;;;;;20.30;45.59;97469.75;5034233;28;20301;-73
2023/06/14 08:30:32;;;;;;;0.10;0.10;;;;;;;20.58;44.70;97471.31;5013669;28;20414;-73
2023/06/14 08:33:00;;;;;;;0.20;0.20;;;;;;;20.63;44.28;97474.09;5033584;28;20088;-73
2023/06/14 08:35:42;;;;;;;0.10;0.10;;;;;;;20.87;43.95;97469.84;5029776;28;20041;-73
2023/06/14 08:38:11;;;;;;;0.10;0.10;;;;;;;20.92;43.70;97474.50;5033304;28;20047;-72
2023/06/14 08:40:42;;;;;;;0.03;0.03;;;;;;;21.02;43.24;97477.28;5029251;28;20057;-73
2023/06/14 08:43:10;;;;;;;0.10;0.10;;;;;;;21.07;43.53;97462.91;5031718;28;20045;-73
2023/06/14 08:45:37;;;;;;;0.10;0.10;;;;;;;21.16;43.24;97470.28;5033982;28;20543;-73
2023/06/14 08:48:08;;;;;;;0.08;0.08;;;;;;;21.28;43.02;97464.66;5029589;28;20065;-73
2023/06/14 08:50:38;;;;;;;0.10;0.10;;;;;;;21.20;43.03;97468.69;5034153;28;20132;-73
2023/06/14 08:53:10;;;;;;;0.10;0.10;;;;;;;21.30;42.94;97464.38;5027886;28;20050;-72
2023/06/14 08:55:39;;;;;;;0.00;0.00;;;;;;;21.45;42.71;97467.16;5033727;28;20132;-72
2023/06/14 08:58:14;;;;;;;0.17;0.13;;;;;;;21.39;42.29;97465.50;5026625;28;20409;-72
2023/06/14 09:00:42;;;;;;;0.10;0.10;;;;;;;21.32;42.10;97471.19;5029502;28;20037;-72
2023/06/14 09:03:13;;;;;;;0.10;0.10;;;;;;;21.45;42.29;97457.09;5034053;28;20048;-72
2023/06/14 09:05:41;;;;;;;0.00;0.00;;;;;;;21.57;41.88;97459.59;5027995;28;20528;-72
2023/06/14 09:08:10;;;;;;;0.10;0.10;;;;;;;21.68;41.96;97458.53;5026128;28;20042;-72
2023/06/14 09:10:38;;;;;;;0.10;0.05;;;;;;;21.61;42.06;97466.91;5033451;28;20128;-72
2023/06/14 09:13:06;;;;;;;0.00;0.00;;;;;;;21.84;41.83;97456.63;5030242;28;20432;-72
2023/06/14 09:15:35;;;;;;;0.10;0.10;;;;;;;21.92;41.00;97473.22;5032145;28;20080;-72
2023/06/14 09:18:03;;;;;;;0.10;0.10;;;;;;;21.94;40.68;97465.59;5029943;28;20064;-72
2023/06/14 09:20:32;;;;;;;0.05;0.05;;;;;;;22.10;39.85;97471.91;5031919;28;20048;-72
2023/06/14 09:23:01;;;;;;;0.10;0.10;;;;;;;21.78;39.67;97465.88;5028390;28;20416;-72
2023/06/14 09:25:29;;;;;;;0.10;0.10;;;;;;;21.91;38.90;97460.72;5030524;28;20060;-72
2023/06/14 09:28:07;;;;;;;0.10;0.10;;;;;;;22.19;38.86;97475.72;5033447;28;20041;-72
2023/06/14 09:30:38;;;;;;;0.00;0.00;;;;;;;22.41;37.94;97469.19;5030153;28;20393;-72
2023/06/14 09:33:06;;;;;;;0.00;0.00;;;;;;;22.16;38.61;97465.38;5031976;28;20041;-72
2023/06/14 09:35:33;;;;;;;0.00;0.00;;;;;;;22.32;38.46;97471.66;5028646;28;20046;-72
2023/06/14 09:38:01;;;;;;;0.00;0.00;;;;;;;22.72;37.70;97481.66;5027545;28;20045;-72
2023/06/14 09:40:29;;;;;;;0.00;0.00;;;;;;;22.89;36.85;97468.56;5033373;28;20209;-72
2023/06/14 09:42:57;;;;;;;0.10;0.10;;;;;;;22.99;36.96;97470.44;5032499;28;20041;-72
2023/06/14 09:45:29;;;;;;;0.00;0.00;;;;;;;23.08;36.49;97467.97;5033322;28;20053;-72
2023/06/14 09:47:59;;;;;;;0.00;0.00;;;;;;;23.04;36.54;97475.91;5028541;28;20073;-72
2023/06/14 09:50:34;;;;;;;0.10;0.10;;;;;;;23.25;36.20;97468.47;5033405;28;20068;-72
2023/06/14 09:53:06;;;;;;;0.08;0.08;;;;;;;23.39;36.29;97472.19;5026184;28;20050;-72
2023/06/14 09:55:35;;;;;;;0.05;0.05;;;;;;;23.08;36.60;97463.34;5032779;28;20528;-72
2023/06/14 09:58:06;;;;;;;0.10;0.10;;;;;;;23.00;36.69;97472.09;5024561;28;20046;-72
2023/06/14 10:00:36;;;;;;;0.10;0.10;;;;;;;23.18;36.38;97473.38;5028558;28;20033;-72
2023/06/14 10:03:07;;;;;;;0.00;0.00;;;;;;;23.24;35.74;97470.38;5030794;28;20045;-72
2023/06/14 10:05:36;;;;;;;0.05;0.05;;;;;;;23.29;35.55;97470.34;5027381;28;20129;-72
2023/06/14 10:08:06;;;;;;;0.00;0.00;;;;;;;23.34;36.23;97466.78;5030152;28;20057;-72
2023/06/14 10:10:33;;;;;;;0.03;0.03;;;;;;;23.62;35.98;97465.28;5032668;28;20037;-72
2023/06/14 10:13:01;;;;;;;0.00;0.00;;;;;;;23.73;35.23;97458.69;5028838;28;20099;-72
2023/06/14 10:15:42;;;;;;;0.08;0.08;;;;;;;23.70;35.03;97459.25;5031048;28;20508;-72
2023/06/14 10:18:20;;;;;;;0.00;0.00;;;;;;;23.37;35.30;97447.13;5025186;28;20045;-72
2023/06/14 10:20:54;;;;;;;0.10;0.10;;;;;;;23.57;35.42;97452.50;5030190;28;20128;-72
2023/06/14 10:23:23;;;;;;;0.00;0.00;;;;;;;23.73;35.88;97450.50;5027342;28;20056;-72
2023/06/14 10:25:51;;;;;;;0.05;0.05;;;;;;;23.94;34.65;97462.09;5028402;28;20051;-72
2023/06/14 10:28:22;;;;;;;0.10;0.10;;;;;;;23.91;34.94;97449.84;5032852;28;20041;-72
2023/06/14 10:31:03;;;;;;;0.00;0.00;;;;;;;24.11;34.77;97451.59;5027880;28;20475;-72
2023/06/14 10:33:33;;;;;;;0.00;0.00;;;;;;;24.17;34.44;97457.84;5027775;28;20061;-72
2023/06/14 10:36:11;;;;;;;0.10;0.10;;;;;;;24.30;34.00;97459.91;5024657;28;20064;-72
2023/06/14 10:38:39;;;;;;;0.00;0.00;;;;;;;24.02;33.91;97453.31;5032409;28;20212;-72
2023/06/14 10:41:07;;;;;;;0.10;0.10;;;;;;;24.07;34.75;97456.81;5024349;28;20073;-72
2023/06/14 10:43:35;;;;;;;0.00;0.00;;;;;;;24.13;34.33;97460.31;5031738;28;20040;-72
2023/06/14 10:46:15;;;;;;;0.00;0.00;;;;;;;24.37;34.21;97458.50;5028573;28;20042;-72
2023/06/14 10:48:44;;;;;;;0.10;0.10;;;;;;;24.46;34.02;97459.50;5027886;28;20444;-72
2023/06/14 10:51:21;;;;;;;0.10;0.10;;;;;;;24.45;34.03;97455.16;5027996;28;20052;-72
2023/06/14 10:53:49;;;;;;;0.10;0.10;;;;;;;24.69;33.61;97451.66;5024065;28;20041;-72
2023/06/14 10:56:30;;;;;;;0.00;0.00;;;;;;;24.71;32.73;97452.97;5027836;28;20052;-72
2023/06/14 10:58:58;;;;;;;0.00;0.00;;;;;;;24.55;33.69;97458.88;5027759;28;20069;-72
2023/06/14 11:01:37;;;;;;;0.00;0.00;;;;;;;24.33;33.67;97459.34;5027500;28;20042;-72
2023/06/14 11:04:10;;;;;;;0.00;0.00;;;;;;;24.30;33.63;97466.19;5030982;28;20046;-72
2023/06/14 11:06:48;;;;;;;0.03;0.03;;;;;;;24.67;32.46;97459.31;5027018;28;20057;-72
2023/06/14 11:09:36;;;;;;;0.00;0.00;;;;;;;24.78;32.28;97453.47;5033129;28;20052;-72
2023/06/14 11:12:04;;;;;;;0.00;0.00;;;;;;;24.81;32.10;97465.72;5035313;28;20046;-72
2023/06/14 11:14:32;;;;;;;0.00;0.00;;;;;;;24.91;31.54;97451.97;5033678;28;20512;-72
2023/06/14 11:17:00;;;;;;;0.00;0.00;;;;;;;24.91;31.75;97454.69;5030615;28;20037;-72
2023/06/14 11:19:30;;;;;;;0.00;0.00;;;;;;;24.97;31.67;97450.81;5031823;28;20076;-72
2023/06/14 11:21:57;;;;;;;0.00;0.00;;;;;;;24.98;31.40;97447.00;5029098;28;20432;-72
2023/06/14 11:24:25;;;;;;;0.00;0.00;;;;;;;25.24;31.17;97450.22;5026017;28;20044;-72
2023/06/14 11:26:52;;;;;;;0.00;0.00;;;;;;;25.34;30.64;97449.25;5030347;28;20095;-72
2023/06/14 11:29:21;;;;;;;0.00;0.00;;;;;;;25.35;30.21;97456.34;5027963;28;20045;-72
2023/06/14 11:31:49;;;;;;;0.00;0.00;;;;;;;25.46;29.70;97453.19;5030124;28;20477;-72
2023/06/14 11:34:16;;;;;;;0.00;0.00;;;;;;;25.63;28.86;97450.00;5027068;28;20061;-72
2023/06/14 11:36:47;;;;;;;0.00;0.00;;;;;;;25.35;30.15;97451.72;5028758;28;20067;-72
2023/06/14 11:39:15;;;;;;;0.00;0.00;;;;;;;25.35;30.50;97446.25;5027094;28;20448;-72
2023/06/14 11:41:45;;;;;;;0.00;0.00;;;;;;;25.43;30.58;97442.06;5027902;28;20048;-72
2023/06/14 11:44:13;;;;;;;0.00;0.00;;;;;;;25.61;30.32;97443.22;5031109;28;20080;-72